Japan Airlines Virtual Airport Information Service

London Heathrow Airport

ICAO: EGLL Country: United Kingdom
Latitude: 51.4775 Longitude: -0.46138
Latest Arrival : AAL46 (KORD-EGLL) Latest Departure : UAE2 (EGLL-OMDB)


WX CaptureLIVE
Data provided by noaa.gov | Fetched at 16:58:43

METAR : EGLL 041620Z AUTO 26012KT 9999 NCD 07/00 Q0998

TAF : EGLL 041053Z 0412/0518 27012KT 9999 FEW025 PROB40 TEMPO 0412/0502 28015G25KT TEMPO 0420/0518 BKN012 PROB40 TEMPO 0421/0505 6000 RA SHRA BECMG 0501/0504 33012KT PROB40 TEMPO 0502/0513 33016G26KT PROB30 TEMPO 0505/0512 7000 RA BKN009 PROB30 TEMPO 0512/0518 8000 -SHRA


Runway Data for EGLL
Data provided by openaviationdata.com

Runway ID Mag Var Hdg Length Elevation Surface ILS Freq ILS Id ILS Slope
09L -1 90° 13160 ft 83 ft Asphalt 110.3 IAA 3
09R -1 91° 12396 ft 83 ft Asphalt 109.5 IBB 3
27L -1 271° 12396 ft 83 ft Asphalt 109.5 ILL 3
27R -1 270° 13160 ft 83 ft Asphalt 110.3 IRR 3

London Heathrow Airport, United Kingdom
Use only for reference purposes



Not for navigational purposes.